Weather at Kersten Brothers Airport

Public forecast

Using degrees Fahrenheit for public forecast. Weather courtesy of forecast.io.

Closest aviation weather report (METAR) to Kersten Brothers Airport

Closest report is Minot Air Force Base, 25.6 nm (47.5 km) SW. Retrieved 2020/09/20 09:56 UTC (35 minutes ago):

KMIB 200956Z AUTO 16003KT 10SM FEW170 13/11 A2969 RMK AO2 SLP055 T01250111

Closest aviation forecast (TAF) to Kersten Brothers Airport

Forecast is more than 12 hours old.

Closest forecast is Minot Air Force Base, 25.6 nm (47.5 km) SW. Retrieved 2020/09/18 17:06 UTC (2 days ago):

TAF KMIB 181700Z 1817/1923 20012G18KT 9999 FEW080 QNH3004INS BECMG 1822/1823 VRB06KT 9999 FEW100 QNH2991INS BECMG 1917/1918 12010G15KT 9999 FEW100 QNH2980INS TX25/1821Z TN08/1911Z